Time;durP1;ratioP1;P1;durP2;ratioP2;P2;SDS_P1;SDS_P2;PMS_P1;PMS_P2;Temp;Humidity;BMP_temperature;BMP_pressure;BME280_temperature;BME280_humidity;BME280_pressure;Samples;Min_cycle;Max_cycle;Signal;HPM_P1;HPM_P2
2023/01/03 00:01:25;;;;;;;39.27;24.03;;;8.20;99.90;;;;;;5047706;28;20236;-51
2023/01/03 00:03:55;;;;;;;54.30;35.00;;;8.30;99.90;;;;;;5048024;28;20259;-51
2023/01/03 00:06:25;;;;;;;152.63;45.90;;;8.30;99.90;;;;;;5048382;28;20730;-51
2023/01/03 00:08:55;;;;;;;228.47;67.80;;;8.30;99.90;;;;;;5048006;28;20274;-49
2023/01/03 00:12:22;;;;;;;606.73;126.63;;;8.30;99.90;;;;;;5048916;28;20605;-52
2023/01/03 00:14:13;;;;;;;353.40;95.60;;;8.40;99.90;;;;;;5048207;28;20248;-51
2023/01/03 00:16:42;;;;;;;307.50;85.50;;;8.30;99.90;;;;;;5048495;28;20248;-50
2023/01/03 00:19:11;;;;;;;180.73;78.37;;;8.30;99.90;;;;;;5048674;28;20202;-51
2023/01/03 00:21:42;;;;;;;51.80;36.90;;;8.30;99.90;;;;;;5049278;28;20264;-52
2023/01/03 00:24:11;;;;;;;1042.97;279.93;;;8.20;99.90;;;;;;5050310;28;20248;-51
2023/01/03 00:26:40;;;;;;;41.73;23.67;;;8.20;99.90;;;;;;5050722;28;20225;-50
2023/01/03 00:29:09;;;;;;;104.70;36.00;;;8.10;99.90;;;;;;5050257;28;20616;-50
2023/01/03 00:31:37;;;;;;;332.27;81.97;;;8.10;99.90;;;;;;5051948;28;20198;-50
2023/01/03 00:34:05;;;;;;;121.73;37.23;;;8.00;99.90;;;;;;5050189;28;20599;-52
2023/01/03 00:36:34;;;;;;;176.70;68.33;;;7.90;99.90;;;;;;5051666;28;20785;-50
2023/01/03 00:39:04;;;;;;;431.20;110.83;;;7.80;99.90;;;;;;5052299;28;20233;-51
2023/01/03 00:41:33;;;;;;;639.60;153.13;;;7.80;99.90;;;;;;5051683;28;20221;-52
2023/01/03 00:44:02;;;;;;;42.90;27.90;;;7.70;99.90;;;;;;5051919;28;20291;-51
2023/01/03 00:46:30;;;;;;;45.17;26.27;;;7.70;99.90;;;;;;5037730;28;20264;-51
2023/01/03 00:48:58;;;;;;;200.97;47.60;;;7.80;99.90;;;;;;5052601;28;20248;-51
2023/01/03 00:51:28;;;;;;;180.33;59.83;;;7.70;99.90;;;;;;5050741;28;20292;-51
2023/01/03 00:53:58;;;;;;;50.93;31.20;;;7.70;99.90;;;;;;5051733;28;20252;-50
2023/01/03 00:56:28;;;;;;;111.67;37.87;;;7.70;99.90;;;;;;5051815;28;20217;-51
2023/01/03 00:58:57;;;;;;;167.83;54.73;;;7.70;99.90;;;;;;5051164;28;20210;-52
2023/01/03 01:01:27;;;;;;;43.13;24.23;;;7.70;99.90;;;;;;5051417;28;20316;-51
2023/01/03 01:03:58;;;;;;;387.80;129.20;;;7.70;99.90;;;;;;5051181;28;20322;-52
2023/01/03 01:06:28;;;;;;;185.70;56.27;;;7.70;99.90;;;;;;5051643;28;20237;-51
2023/01/03 01:08:59;;;;;;;145.77;50.43;;;7.60;99.90;;;;;;5051473;28;20223;-52
2023/01/03 01:11:29;;;;;;;351.00;72.50;;;7.60;99.90;;;;;;5051217;28;20293;-51
2023/01/03 01:13:57;;;;;;;58.00;35.90;;;7.60;99.90;;;;;;5051060;28;20677;-52
2023/01/03 01:16:28;;;;;;;249.40;55.67;;;7.50;99.90;;;;;;5042701;28;20645;-52
2023/01/03 01:18:59;;;;;;;63.37;33.90;;;7.50;99.90;;;;;;5050444;28;20206;-52
2023/01/03 01:21:29;;;;;;;64.03;33.73;;;7.50;99.90;;;;;;5051324;28;20278;-51
2023/01/03 01:23:59;;;;;;;262.43;77.60;;;7.50;99.90;;;;;;5050148;28;20274;-52
2023/01/03 01:26:28;;;;;;;112.40;41.23;;;7.50;99.90;;;;;;5051069;28;20279;-51
2023/01/03 01:28:56;;;;;;;257.70;74.10;;;7.50;99.90;;;;;;5051477;28;20270;-51
2023/01/03 01:31:26;;;;;;;73.37;42.67;;;7.50;99.90;;;;;;5050310;28;20761;-51
2023/01/03 01:33:56;;;;;;;202.20;54.23;;;7.50;99.90;;;;;;5045518;28;20313;-51
2023/01/03 01:36:26;;;;;;;23.97;14.13;;;7.50;99.90;;;;;;5050182;28;20768;-52
2023/01/03 01:38:55;;;;;;;95.47;39.73;;;7.40;99.90;;;;;;5051393;28;20625;-52
2023/01/03 01:44:43;;;;;;;30.90;20.73;;;7.30;99.90;;;;;;5049648;28;20205;-51
2023/01/03 01:47:16;;;;;;;76.33;36.53;;;7.20;99.90;;;;;;5041220;28;20629;-51
2023/01/03 01:49:46;;;;;;;265.73;76.10;;;7.10;99.90;;;;;;5050778;28;20667;-56
2023/01/03 01:52:17;;;;;;;249.07;61.17;;;7.10;99.90;;;;;;5050395;28;20198;-51
2023/01/03 01:54:47;;;;;;;32.23;20.27;;;7.10;99.90;;;;;;5050603;28;20292;-52
2023/01/03 01:57:18;;;;;;;68.80;23.83;;;7.10;99.90;;;;;;5050657;28;20286;-52
2023/01/03 01:59:48;;;;;;;39.10;23.13;;;7.10;99.90;;;;;;5050395;28;20585;-51
2023/01/03 02:02:20;;;;;;;98.30;41.13;;;7.10;99.90;;;;;;5050261;28;20284;-51
2023/01/03 02:04:51;;;;;;;197.23;64.53;;;7.10;99.90;;;;;;5050493;28;20209;-52
2023/01/03 02:07:22;;;;;;;46.13;16.90;;;7.10;99.90;;;;;;5050587;28;20202;-51
2023/01/03 02:09:54;;;;;;;340.27;79.13;;;7.10;99.90;;;;;;5050363;28;20256;-50
2023/01/03 02:15:25;;;;;;;64.67;26.53;;;7.10;99.90;;;;;;5043412;28;20230;-51
2023/01/03 02:18:00;;;;;;;203.90;67.43;;;7.00;99.90;;;;;;5037168;28;20209;-51
2023/01/03 02:20:49;;;;;;;37.10;24.17;;;7.00;99.90;;;;;;5049927;28;20678;-51
2023/01/03 02:23:43;;;;;;;34.90;22.27;;;6.90;99.90;;;;;;5050012;28;20212;-52
2023/01/03 02:26:38;;;;;;;148.73;59.37;;;6.80;99.90;;;;;;5048258;28;20255;-52
2023/01/03 02:29:52;;;;;;;96.00;39.70;;;6.70;99.90;;;;;;5050254;28;20326;-53
2023/01/03 02:32:32;;;;;;;122.53;50.53;;;6.70;99.90;;;;;;5049854;28;20201;-51
2023/01/03 02:35:06;;;;;;;39.90;22.00;;;6.60;99.90;;;;;;5037101;28;20212;-52
2023/01/03 02:37:42;;;;;;;33.60;19.93;;;6.60;99.90;;;;;;5049772;28;20244;-52
2023/01/03 02:40:16;;;;;;;173.27;64.40;;;6.50;99.90;;;;;;5049799;28;20313;-51
2023/01/03 02:43:00;;;;;;;48.47;33.60;;;6.50;99.90;;;;;;5048356;28;20272;-51
2023/01/03 02:45:57;;;;;;;83.27;31.87;;;6.50;99.90;;;;;;5049580;28;20284;-52
2023/01/03 02:48:35;;;;;;;181.93;46.90;;;6.60;99.90;;;;;;5049589;28;20209;-50
2023/01/03 02:51:08;;;;;;;51.37;20.80;;;6.60;99.90;;;;;;5049629;28;20318;-51
2023/01/03 02:53:40;;;;;;;44.27;36.60;;;6.60;99.90;;;;;;5035448;28;20638;-51
2023/01/03 02:56:13;;;;;;;117.83;43.50;;;6.60;99.90;;;;;;5049504;28;20257;-52
2023/01/03 02:58:46;;;;;;;312.43;92.43;;;6.60;99.90;;;;;;5049393;28;20246;-51
2023/01/03 03:01:16;;;;;;;175.93;57.70;;;6.70;99.90;;;;;;5049780;28;20308;-51
2023/01/03 03:03:47;;;;;;;215.40;62.23;;;6.70;99.90;;;;;;5049085;28;20213;-51
2023/01/03 03:06:21;;;;;;;43.20;25.73;;;6.70;99.90;;;;;;5049322;28;20308;-51
2023/01/03 03:08:50;;;;;;;76.10;36.40;;;6.70;99.90;;;;;;5049386;28;20342;-51
2023/01/03 03:14:11;;;;;;;45.63;25.30;;;6.80;99.90;;;;;;5035312;28;20299;-51
2023/01/03 03:16:49;;;;;;;23.30;15.17;;;6.90;99.90;;;;;;5039092;28;20229;-52
2023/01/03 03:25:11;;;;;;;119.53;40.17;;;6.80;99.90;;;;;;5049341;28;20228;-51
2023/01/03 03:30:32;;;;;;;117.90;39.57;;;6.80;99.90;;;;;;5049093;28;20266;-52
2023/01/03 03:33:04;;;;;;;91.00;47.47;;;6.70;99.90;;;;;;5036633;28;20632;-52
2023/01/03 03:35:40;;;;;;;101.43;43.40;;;6.70;99.90;;;;;;5049606;28;20229;-51
2023/01/03 03:38:11;;;;;;;131.87;54.73;;;6.60;99.90;;;;;;5048609;28;20208;-51
2023/01/03 03:46:32;;;;;;;44.07;31.57;;;6.50;99.90;;;;;;5048516;28;20279;-51
2023/01/03 03:51:55;;;;;;;50.43;35.60;;;6.40;99.90;;;;;;5048708;28;20236;-51
2023/01/03 03:54:25;;;;;;;56.20;38.70;;;6.30;99.90;;;;;;5048887;28;20266;-51
2023/01/03 03:56:58;;;;;;;35.40;24.13;;;6.40;99.90;;;;;;5050310;28;20323;-50
2023/01/03 03:59:28;;;;;;;50.90;32.97;;;6.30;99.90;;;;;;5048816;28;20252;-52
2023/01/03 04:01:59;;;;;;;116.30;37.27;;;6.30;99.90;;;;;;5052628;28;20279;-51
2023/01/03 04:04:32;;;;;;;46.70;30.17;;;6.30;99.90;;;;;;5053030;28;20750;-51
2023/01/03 04:07:02;;;;;;;187.13;66.40;;;6.30;99.90;;;;;;5052999;28;20325;-52
2023/01/03 04:09:30;;;;;;;227.80;47.87;;;6.30;99.90;;;;;;5052514;28;20241;-51
2023/01/03 04:11:58;;;;;;;193.33;53.47;;;6.30;99.90;;;;;;5052467;28;20292;-51
2023/01/03 04:14:26;;;;;;;85.70;45.10;;;6.30;99.90;;;;;;5052519;28;20229;-51
2023/01/03 04:16:54;;;;;;;128.60;44.73;;;6.20;99.90;;;;;;5052717;28;20274;-50
2023/01/03 04:19:22;;;;;;;54.27;38.50;;;6.20;99.90;;;;;;5051737;28;20209;-51
2023/01/03 04:21:50;;;;;;;59.17;38.43;;;6.10;99.90;;;;;;5051178;28;20261;-51
2023/01/03 04:24:21;;;;;;;133.10;44.83;;;6.00;99.90;;;;;;5052455;28;20247;-52
2023/01/03 04:26:49;;;;;;;31.27;20.07;;;6.00;99.90;;;;;;5052454;28;20291;-51
2023/01/03 04:29:17;;;;;;;109.70;42.20;;;6.00;99.90;;;;;;5052576;28;20201;-51
2023/01/03 04:31:45;;;;;;;44.43;31.07;;;5.90;99.90;;;;;;5051632;28;20222;-52
2023/01/03 04:34:14;;;;;;;50.63;33.07;;;5.80;99.90;;;;;;5052194;28;20219;-51
2023/01/03 04:36:42;;;;;;;48.73;32.50;;;5.80;99.90;;;;;;5051659;28;20221;-52
2023/01/03 04:39:10;;;;;;;113.40;36.70;;;5.80;99.90;;;;;;5052423;28;20262;-51
2023/01/03 04:41:39;;;;;;;49.23;30.97;;;5.90;99.90;;;;;;5050820;28;20297;-52
2023/01/03 04:44:07;;;;;;;86.87;29.57;;;5.90;99.90;;;;;;5051455;28;20640;-52
2023/01/03 04:46:37;;;;;;;79.97;41.60;;;5.90;99.90;;;;;;5051828;28;20236;-52
2023/01/03 04:49:07;;;;;;;63.70;31.00;;;5.90;99.90;;;;;;5051858;28;20216;-51
2023/01/03 04:51:35;;;;;;;73.93;34.13;;;5.90;99.90;;;;;;5052096;28;20239;-51
2023/01/03 04:54:05;;;;;;;162.87;57.03;;;5.90;99.90;;;;;;5051146;28;20558;-50
2023/01/03 04:56:35;;;;;;;26.90;16.33;;;5.80;99.90;;;;;;5051581;28;20713;-51
2023/01/03 04:59:05;;;;;;;144.53;45.83;;;5.80;99.90;;;;;;5051665;28;20292;-51
2023/01/03 05:01:33;;;;;;;50.73;35.83;;;5.80;99.90;;;;;;5051934;28;20214;-51
2023/01/03 05:04:03;;;;;;;53.90;26.53;;;5.70;99.90;;;;;;5050692;28;20725;-51
2023/01/03 05:06:31;;;;;;;94.23;31.10;;;5.70;99.90;;;;;;5048260;28;20231;-51
2023/01/03 05:08:59;;;;;;;42.43;28.47;;;5.80;99.90;;;;;;5051394;28;20946;-51
2023/01/03 05:11:28;;;;;;;49.60;34.53;;;5.90;99.90;;;;;;5050740;28;21054;-51
2023/01/03 05:13:56;;;;;;;45.00;25.67;;;5.90;99.90;;;;;;5051104;28;20241;-50
2023/01/03 05:16:25;;;;;;;37.47;25.63;;;5.90;99.90;;;;;;5051327;28;20235;-52
2023/01/03 05:18:53;;;;;;;26.97;15.07;;;5.90;99.90;;;;;;5038419;28;20295;-51
2023/01/03 05:26:57;;;;;;;39.00;26.17;;;5.80;99.90;;;;;;5051194;28;20290;-51
2023/01/03 05:29:26;;;;;;;95.87;46.50;;;5.80;99.90;;;;;;5050541;28;20972;-51
2023/01/03 05:31:55;;;;;;;50.47;35.63;;;5.80;99.90;;;;;;5050872;28;20292;-50
2023/01/03 05:34:24;;;;;;;88.17;26.53;;;5.80;99.90;;;;;;5050782;28;20693;-51
2023/01/03 05:36:52;;;;;;;51.23;29.97;;;5.90;99.90;;;;;;5050942;28;20775;-51
2023/01/03 05:39:20;;;;;;;98.20;42.57;;;5.90;99.90;;;;;;5051046;28;20384;-51
2023/01/03 05:42:00;;;;;;;45.83;32.90;;;5.90;99.90;;;;;;5050932;28;20209;-51
2023/01/03 05:44:29;;;;;;;38.87;28.23;;;5.80;99.90;;;;;;5051017;28;20235;-52
2023/01/03 05:46:59;;;;;;;110.90;50.83;;;5.70;99.90;;;;;;5050852;28;20231;-52
2023/01/03 05:49:27;;;;;;;122.87;42.83;;;5.60;99.90;;;;;;5050675;28;20266;-51
2023/01/03 05:51:55;;;;;;;84.20;25.07;;;5.60;99.90;;;;;;5050223;28;20220;-49
2023/01/03 05:54:23;;;;;;;90.67;36.13;;;5.60;99.90;;;;;;5050358;28;20259;-51
2023/01/03 05:56:51;;;;;;;47.37;31.17;;;5.60;99.90;;;;;;5049865;28;20266;-51
2023/01/03 05:59:21;;;;;;;168.03;51.10;;;5.70;99.90;;;;;;5041523;28;20266;-52
2023/01/03 06:01:49;;;;;;;43.50;23.23;;;5.80;99.90;;;;;;5036363;28;20285;-51
2023/01/03 06:04:19;;;;;;;43.93;23.83;;;5.80;99.90;;;;;;5050557;28;20229;-51
2023/01/03 06:06:47;;;;;;;42.80;28.90;;;5.90;99.90;;;;;;5050199;28;20230;-50
2023/01/03 06:09:15;;;;;;;29.70;17.40;;;6.00;99.90;;;;;;5050426;28;20281;-51
2023/01/03 06:11:43;;;;;;;40.30;30.23;;;6.00;99.90;;;;;;5050194;28;20245;-51
2023/01/03 06:14:12;;;;;;;85.13;37.27;;;6.10;99.90;;;;;;5050058;28;20263;-51
2023/01/03 06:19:26;;;;;;;129.83;52.30;;;6.00;99.90;;;;;;5049734;28;20215;-51
2023/01/03 06:21:54;;;;;;;38.57;23.37;;;5.90;99.90;;;;;;5049872;28;20690;-52
2023/01/03 06:24:22;;;;;;;146.50;61.53;;;5.90;99.90;;;;;;5049642;28;20315;-52
2023/01/03 06:26:51;;;;;;;28.13;17.70;;;5.80;99.90;;;;;;5049411;28;20729;-52
2023/01/03 06:29:19;;;;;;;75.87;35.03;;;5.70;99.90;;;;;;5049119;28;20717;-51
2023/01/03 06:31:47;;;;;;;47.93;37.87;;;5.60;99.90;;;;;;5049759;28;20249;-52
2023/01/03 06:34:15;;;;;;;52.47;28.00;;;5.50;99.90;;;;;;5050099;28;20193;-52
2023/01/03 06:36:44;;;;;;;93.73;42.13;;;5.40;99.90;;;;;;5049172;28;20708;-51
2023/01/03 06:39:12;;;;;;;39.90;27.13;;;5.30;99.90;;;;;;5049986;28;20241;-51
2023/01/03 06:41:40;;;;;;;43.20;32.10;;;5.30;99.90;;;;;;5048584;28;20270;-51
2023/01/03 06:44:10;;;;;;;70.10;30.93;;;5.30;99.90;;;;;;5049475;28;20235;-51
2023/01/03 06:54:59;;;;;;;53.73;29.43;;;5.20;99.90;;;;;;5035181;28;20230;-51
2023/01/03 06:57:27;;;;;;;39.03;20.40;;;5.10;99.90;;;;;;5049191;28;20699;-50
2023/01/03 06:59:56;;;;;;;47.80;25.70;;;5.10;99.90;;;;;;5040643;28;20206;-50
2023/01/03 07:02:24;;;;;;;41.63;33.60;;;5.10;99.90;;;;;;5045835;28;20569;-51
2023/01/03 07:04:52;;;;;;;29.83;20.77;;;5.00;99.90;;;;;;5048986;28;20228;-51
2023/01/03 07:07:22;;;;;;;73.97;47.00;;;5.00;99.90;;;;;;5048535;28;20307;-51
2023/01/03 07:09:50;;;;;;;65.17;39.50;;;4.90;99.90;;;;;;5049160;28;20631;-50
2023/01/03 07:15:05;;;;;;;36.77;22.13;;;4.80;99.90;;;;;;5038304;28;20656;-51
2023/01/03 07:17:33;;;;;;;71.87;36.33;;;4.80;99.90;;;;;;5048593;28;20262;-51
2023/01/03 07:20:01;;;;;;;56.10;48.60;;;4.80;99.90;;;;;;5049366;28;20241;-50
2023/01/03 07:22:31;;;;;;;90.57;33.13;;;4.80;99.90;;;;;;5048045;28;20265;-50
2023/01/03 07:24:59;;;;;;;62.30;29.83;;;4.70;99.90;;;;;;5048320;28;20345;-51
2023/01/03 07:27:27;;;;;;;73.17;42.77;;;4.70;99.90;;;;;;5047904;28;20217;-52
2023/01/03 07:29:55;;;;;;;50.60;28.53;;;4.60;99.90;;;;;;5047747;28;20631;-52
2023/01/03 07:32:23;;;;;;;36.17;24.30;;;4.60;99.90;;;;;;5046037;28;20679;-51
2023/01/03 07:34:51;;;;;;;36.87;29.37;;;4.60;99.90;;;;;;5048425;28;20210;-51
2023/01/03 07:37:19;;;;;;;95.73;46.30;;;4.60;99.90;;;;;;5046783;28;20297;-52
2023/01/03 07:39:49;;;;;;;31.47;23.07;;;4.60;99.90;;;;;;5048153;28;20302;-52
2023/01/03 07:45:02;;;;;;;26.13;23.07;;;4.50;99.90;;;;;;5046849;28;20289;-51
2023/01/03 07:47:30;;;;;;;35.00;19.37;;;4.40;99.90;;;;;;5047911;28;20267;-51
2023/01/03 07:49:58;;;;;;;47.67;36.80;;;4.40;99.90;;;;;;5045665;28;20206;-51
2023/01/03 07:52:28;;;;;;;28.80;21.03;;;4.40;99.90;;;;;;5045082;28;20463;-50
2023/01/03 07:54:57;;;;;;;68.07;46.60;;;4.30;99.90;;;;;;5045548;28;20262;-53
2023/01/03 07:57:25;;;;;;;48.53;35.73;;;4.30;99.90;;;;;;5045896;28;20218;-50
2023/01/03 07:59:53;;;;;;;38.80;25.13;;;4.30;99.90;;;;;;5046869;28;20295;-50
2023/01/03 08:02:21;;;;;;;51.97;23.23;;;4.30;99.90;;;;;;5046703;28;20202;-50
2023/01/03 08:04:49;;;;;;;41.90;33.07;;;4.30;99.90;;;;;;5048121;28;20236;-51
2023/01/03 08:07:18;;;;;;;46.20;28.80;;;4.30;99.90;;;;;;5048397;28;20211;-51
2023/01/03 08:15:18;;;;;;;121.13;32.07;;;4.50;99.90;;;;;;5044045;28;20227;-52
2023/01/03 08:17:46;;;;;;;103.00;33.40;;;4.60;99.90;;;;;;5046418;28;20289;-53
2023/01/03 08:20:15;;;;;;;203.53;37.47;;;4.60;99.90;;;;;;5047933;28;20201;-51
2023/01/03 08:22:43;;;;;;;191.27;40.27;;;4.70;99.90;;;;;;5045653;28;20675;-52
2023/01/03 08:25:11;;;;;;;229.43;36.47;;;4.80;99.90;;;;;;5042982;28;20732;-51
2023/01/03 08:27:41;;;;;;;174.77;38.23;;;4.80;99.90;;;;;;5046588;28;20252;-51
2023/01/03 08:30:17;;;;;;;211.73;48.93;;;4.90;99.90;;;;;;5045421;28;20241;-52
2023/01/03 08:32:45;;;;;;;225.27;68.73;;;4.90;99.90;;;;;;5046822;28;20291;-51
2023/01/03 08:35:14;;;;;;;142.23;55.87;;;4.80;99.90;;;;;;5048053;28;20282;-51
2023/01/03 08:37:43;;;;;;;58.70;35.20;;;4.80;99.90;;;;;;5044350;28;20202;-51
2023/01/03 08:40:14;;;;;;;59.63;25.03;;;4.80;99.90;;;;;;5046161;28;20206;-51
2023/01/03 08:42:45;;;;;;;61.53;37.77;;;4.80;99.90;;;;;;5044634;28;20214;-53
2023/01/03 08:45:17;;;;;;;51.33;31.30;;;4.80;99.90;;;;;;5042410;28;20233;-51
2023/01/03 08:47:46;;;;;;;50.03;24.27;;;4.80;99.90;;;;;;5049172;28;20274;-52
2023/01/03 08:50:15;;;;;;;43.50;25.20;;;4.80;99.90;;;;;;5038960;28;20201;-51
2023/01/03 08:52:43;;;;;;;81.23;33.33;;;4.80;99.90;;;;;;5032263;28;20240;-51
2023/01/03 08:55:11;;;;;;;54.43;37.97;;;4.80;99.90;;;;;;5030669;28;20258;-49
2023/01/03 08:57:39;;;;;;;35.10;28.27;;;4.90;99.90;;;;;;5030159;28;20253;-50
2023/01/03 09:00:10;;;;;;;119.43;39.97;;;4.90;99.90;;;;;;5031200;28;20241;-51
2023/01/03 09:02:39;;;;;;;56.87;21.97;;;5.00;99.90;;;;;;5038196;28;20210;-52
2023/01/03 09:05:08;;;;;;;106.97;36.30;;;5.00;99.90;;;;;;5051300;28;20290;-52
2023/01/03 09:07:36;;;;;;;37.10;16.50;;;5.10;99.90;;;;;;5045839;28;20260;-52
2023/01/03 09:10:05;;;;;;;119.53;35.13;;;5.20;99.90;;;;;;5047869;28;20260;-52
2023/01/03 09:12:34;;;;;;;66.40;33.77;;;5.20;99.90;;;;;;5048964;28;20213;-51
2023/01/03 09:15:02;;;;;;;123.67;51.60;;;5.20;99.90;;;;;;5050092;28;20375;-51
2023/01/03 09:17:31;;;;;;;183.97;39.07;;;5.30;99.90;;;;;;5039706;28;20251;-52
2023/01/03 09:20:00;;;;;;;348.60;79.43;;;5.40;99.90;;;;;;5048970;28;20292;-51
2023/01/03 09:22:28;;;;;;;70.57;23.73;;;5.40;99.90;;;;;;5041355;28;20240;-51
2023/01/03 09:24:56;;;;;;;726.20;109.30;;;5.50;99.90;;;;;;5037187;28;20330;-51
2023/01/03 09:27:24;;;;;;;141.63;39.87;;;5.50;99.90;;;;;;5041584;28;20261;-52
2023/01/03 09:29:52;;;;;;;546.67;103.57;;;5.50;99.90;;;;;;5048842;28;20261;-51
2023/01/03 09:32:21;;;;;;;46.73;22.57;;;5.60;99.90;;;;;;5047490;28;20216;-52
2023/01/03 09:34:50;;;;;;;176.27;63.73;;;5.70;99.90;;;;;;5049853;28;20243;-51
2023/01/03 09:37:18;;;;;;;164.80;53.53;;;5.70;99.90;;;;;;5050080;28;20294;-51
2023/01/03 09:39:46;;;;;;;289.40;69.87;;;5.80;99.90;;;;;;5037331;28;20519;-52
2023/01/03 09:45:06;;;;;;;72.80;28.37;;;6.00;99.90;;;;;;5041759;28;20373;-51
2023/01/03 09:47:37;;;;;;;1615.00;307.83;;;6.10;99.90;;;;;;5050476;28;20211;-51
2023/01/03 09:50:10;;;;;;;1197.43;229.37;;;6.10;99.90;;;;;;5049132;28;20258;-51
2023/01/03 10:04:48;;;;;;;895.93;127.80;;;6.50;99.90;;;;;;5050654;28;20290;-51
2023/01/03 10:07:32;;;;;;;203.43;50.67;;;6.50;99.90;;;;;;5039957;28;20628;-52
2023/01/03 10:10:12;;;;;;;1407.30;223.93;;;6.60;99.90;;;;;;5050121;28;20209;-50
2023/01/03 10:12:55;;;;;;;193.20;52.93;;;6.60;99.90;;;;;;5041500;28;20206;-50
2023/01/03 10:15:31;;;;;;;253.27;58.07;;;6.60;99.90;;;;;;5048690;28;20221;-50
2023/01/03 10:18:13;;;;;;;108.90;35.97;;;6.70;99.90;;;;;;5049581;28;20205;-52
2023/01/03 10:20:48;;;;;;;1562.10;252.43;;;6.80;99.90;;;;;;5038479;28;20764;-51
2023/01/03 10:23:18;;;;;;;505.97;80.50;;;6.70;99.90;;;;;;5049736;28;20213;-51
2023/01/03 10:25:48;;;;;;;285.83;69.93;;;6.80;99.90;;;;;;5049928;28;20229;-50
2023/01/03 10:28:18;;;;;;;607.30;150.10;;;6.80;99.90;;;;;;5049517;28;20243;-50
2023/01/03 10:31:01;;;;;;;919.87;216.27;;;6.90;99.90;;;;;;5048820;28;20316;-52
2023/01/03 10:33:39;;;;;;;1695.63;273.27;;;6.90;99.90;;;;;;5049159;28;20279;-52
2023/01/03 10:36:08;;;;;;;665.60;149.10;;;6.90;99.90;;;;;;5048563;28;20228;-53
2023/01/03 10:38:39;;;;;;;902.50;197.77;;;7.00;99.90;;;;;;5048722;28;20755;-50
2023/01/03 10:41:23;;;;;;;1938.27;383.63;;;7.00;99.90;;;;;;5049645;28;20215;-51
2023/01/03 10:43:57;;;;;;;1452.00;335.30;;;7.00;99.90;;;;;;5047742;28;20247;-51
2023/01/03 10:46:26;;;;;;;1246.00;218.67;;;7.00;99.90;;;;;;5047029;28;20285;-52
2023/01/03 10:48:57;;;;;;;937.90;264.33;;;7.10;99.90;;;;;;5041841;28;20585;-51
2023/01/03 10:51:54;;;;;;;1140.53;222.37;;;7.10;99.90;;;;;;5046775;28;20216;-51
2023/01/03 10:54:31;;;;;;;1998.93;298.17;;;7.30;99.90;;;;;;5035200;28;20205;-52
2023/01/03 10:57:00;;;;;;;892.67;150.00;;;7.30;99.90;;;;;;5046697;28;20229;-51
2023/01/03 10:59:29;;;;;;;1999.90;340.77;;;7.30;99.90;;;;;;5033705;28;20263;-51
2023/01/03 11:02:00;;;;;;;1891.33;342.73;;;7.20;99.90;;;;;;5046670;28;20679;-52
2023/01/03 11:04:30;;;;;;;375.20;82.83;;;7.20;99.90;;;;;;5047442;28;20202;-52
2023/01/03 11:07:04;;;;;;;179.40;60.50;;;7.30;99.90;;;;;;5048237;28;20233;-52
2023/01/03 11:09:46;;;;;;;789.27;217.97;;;7.40;99.90;;;;;;5047687;28;20228;-51
2023/01/03 11:12:26;;;;;;;605.67;153.27;;;7.60;99.90;;;;;;5048009;28;20312;-51
2023/01/03 11:14:56;;;;;;;1006.50;246.20;;;7.60;99.90;;;;;;5048698;28;20209;-51
2023/01/03 11:17:26;;;;;;;68.43;27.20;;;7.70;99.90;;;;;;5047888;28;20231;-51
2023/01/03 11:19:55;;;;;;;701.77;178.40;;;7.80;99.90;;;;;;5041440;28;20210;-52
2023/01/03 11:22:34;;;;;;;1999.90;340.00;;;7.90;99.90;;;;;;5042819;28;20280;-51
2023/01/03 11:25:26;;;;;;;1327.60;279.50;;;7.80;99.90;;;;;;5047892;28;20690;-52
2023/01/03 11:28:15;;;;;;;903.13;157.43;;;7.70;99.90;;;;;;5047788;28;20671;-52
2023/01/03 11:30:52;;;;;;;594.87;158.07;;;7.70;99.90;;;;;;5048051;28;20237;-52
2023/01/03 11:33:52;;;;;;;536.00;151.60;;;7.70;99.90;;;;;;5046894;28;20740;-52
2023/01/03 11:36:46;;;;;;;431.23;111.40;;;7.70;99.90;;;;;;5047794;28;20256;-51
2023/01/03 11:39:42;;;;;;;533.67;93.97;;;7.80;99.90;;;;;;5045816;28;20578;-51
2023/01/03 11:42:35;;;;;;;72.33;28.30;;;7.80;99.90;;;;;;5047083;28;20205;-52
2023/01/03 11:45:25;;;;;;;286.63;87.03;;;7.90;99.90;;;;;;5046300;28;20213;-53
2023/01/03 11:48:05;;;;;;;527.27;99.73;;;7.90;99.90;;;;;;5048305;28;20205;-53
2023/01/03 11:50:54;;;;;;;1055.07;194.40;;;7.90;99.90;;;;;;5047574;28;20209;-51
2023/01/03 11:53:35;;;;;;;591.80;124.27;;;7.90;99.90;;;;;;5045540;28;20193;-50
2023/01/03 11:56:25;;;;;;;948.80;180.40;;;7.90;99.90;;;;;;5047518;28;20559;-53
2023/01/03 11:59:25;;;;;;;1200.10;243.20;;;8.10;99.90;;;;;;5047450;28;20293;-52
2023/01/03 12:02:26;;;;;;;505.33;124.50;;;8.20;99.90;;;;;;5046582;28;20263;-52
2023/01/03 12:05:07;;;;;;;504.07;124.10;;;8.30;99.90;;;;;;5047895;28;20217;-51
2023/01/03 12:07:55;;;;;;;836.60;164.73;;;8.20;99.90;;;;;;5046447;28;20584;-51
2023/01/03 12:10:32;;;;;;;632.77;119.37;;;8.20;99.90;;;;;;5047662;28;20658;-51
2023/01/03 12:13:11;;;;;;;786.30;163.40;;;8.20;99.90;;;;;;5043845;28;20905;-51
2023/01/03 12:15:46;;;;;;;443.53;87.43;;;8.20;99.90;;;;;;5047093;28;20299;-51
2023/01/03 12:18:22;;;;;;;980.33;170.27;;;8.20;99.90;;;;;;5048432;28;20764;-52
2023/01/03 12:20:57;;;;;;;592.43;130.23;;;8.20;99.90;;;;;;5050452;28;20217;-51
2023/01/03 12:23:38;;;;;;;730.87;154.73;;;8.30;99.90;;;;;;5050413;28;20283;-51
2023/01/03 12:26:09;;;;;;;1999.90;839.97;;;8.30;99.90;;;;;;5051913;28;20284;-51
2023/01/03 12:28:40;;;;;;;1599.43;286.47;;;8.20;99.90;;;;;;5051453;28;20233;-51
2023/01/03 12:31:19;;;;;;;1471.07;291.70;;;8.20;99.90;;;;;;5050932;28;20201;-51
2023/01/03 12:33:52;;;;;;;586.57;116.70;;;8.20;99.90;;;;;;5050117;28;20206;-51
2023/01/03 12:36:31;;;;;;;799.83;141.90;;;8.20;99.90;;;;;;5051909;28;20679;-50
2023/01/03 12:39:28;;;;;;;321.17;94.80;;;8.20;99.90;;;;;;5051988;28;20259;-50
2023/01/03 12:42:05;;;;;;;1852.10;367.40;;;8.30;99.90;;;;;;5051783;28;20241;-52
2023/01/03 12:44:38;;;;;;;1227.67;272.60;;;8.30;99.90;;;;;;5050725;28;20218;-51
2023/01/03 12:47:15;;;;;;;666.17;128.30;;;8.30;99.90;;;;;;5051189;28;20287;-52
2023/01/03 12:49:47;;;;;;;1999.90;315.57;;;8.40;99.90;;;;;;5051851;28;20230;-52
2023/01/03 12:52:18;;;;;;;524.57;97.53;;;8.40;99.90;;;;;;5038174;28;20233;-51
2023/01/03 12:54:52;;;;;;;723.30;147.93;;;8.50;99.90;;;;;;5051048;28;20212;-51
2023/01/03 12:57:41;;;;;;;1123.47;223.63;;;8.60;99.90;;;;;;5033746;28;20229;-51
2023/01/03 13:00:22;;;;;;;1999.90;392.13;;;8.60;99.90;;;;;;5047273;28;20311;-52
2023/01/03 13:02:56;;;;;;;1402.53;310.60;;;8.50;99.90;;;;;;5044413;28;20205;-53
2023/01/03 13:05:30;;;;;;;687.20;124.53;;;8.50;99.90;;;;;;5049812;28;20225;-51
2023/01/03 13:08:06;;;;;;;1134.73;265.00;;;8.60;99.90;;;;;;5050655;28;20272;-51
2023/01/03 13:10:38;;;;;;;1436.43;347.13;;;8.50;99.90;;;;;;5045465;28;20931;-52
2023/01/03 13:13:06;;;;;;;856.03;226.07;;;8.50;99.90;;;;;;5046566;28;20240;-52
2023/01/03 13:15:35;;;;;;;1062.37;173.20;;;8.50;99.90;;;;;;5048970;28;20279;-52
2023/01/03 13:18:29;;;;;;;1475.13;293.63;;;8.50;99.90;;;;;;5048818;28;20272;-52
2023/01/03 13:20:58;;;;;;;1999.90;535.30;;;8.50;99.90;;;;;;5048951;28;20297;-52
2023/01/03 13:23:35;;;;;;;1999.90;621.43;;;8.50;99.90;;;;;;5049128;28;20201;-52
2023/01/03 13:26:24;;;;;;;1261.57;229.60;;;8.50;99.90;;;;;;5045542;28;20314;-52
2023/01/03 13:29:13;;;;;;;1999.90;463.60;;;8.50;99.90;;;;;;5049006;28;20690;-51
2023/01/03 13:31:41;;;;;;;1381.73;265.73;;;8.50;99.90;;;;;;5049822;28;20312;-50
2023/01/03 13:34:35;;;;;;;1152.77;263.80;;;8.50;99.90;;;;;;5037120;28;20590;-52
2023/01/03 13:37:16;;;;;;;1999.90;363.87;;;8.50;99.90;;;;;;5030201;28;20291;-51
2023/01/03 13:40:15;;;;;;;1999.90;582.83;;;8.40;99.90;;;;;;5034704;28;20206;-51
2023/01/03 13:42:44;;;;;;;1889.40;332.63;;;8.40;99.90;;;;;;5033881;28;20667;-52
2023/01/03 13:45:55;;;;;;;1972.13;418.30;;;8.40;99.90;;;;;;5039138;28;20268;-52
2023/01/03 13:48:30;;;;;;;550.37;126.97;;;8.20;99.90;;;;;;5042145;28;20226;-51
2023/01/03 13:51:27;;;;;;;1999.90;581.00;;;8.20;99.90;;;;;;5042340;28;20667;-51
2023/01/03 13:53:59;;;;;;;1999.90;324.20;;;8.30;99.90;;;;;;5041361;28;20216;-51
2023/01/03 13:56:30;;;;;;;1999.90;409.40;;;8.20;99.90;;;;;;5050500;28;20226;-51
2023/01/03 13:59:03;;;;;;;1999.90;474.43;;;8.30;99.90;;;;;;5050539;28;20210;-51
2023/01/03 14:01:54;;;;;;;1415.40;223.40;;;8.30;99.90;;;;;;5047121;28;20229;-51
2023/01/03 14:04:49;;;;;;;999.57;227.57;;;8.30;99.90;;;;;;5049654;28;20236;-51
2023/01/03 14:07:56;;;;;;;1842.30;314.87;;;8.30;99.90;;;;;;5040814;28;20230;-52